Jesupolis, Brazil
Current Conditions -  °F | °C
As of 5:00 PM on Monday 22 Dec 2014 (Local Time) from SBAN Reporting Station
Scattered Clouds Scattered Clouds  
Wind Chill: 77°   Ceiling: Unl
Heat Index: 79°   Visibility: 6mi
Dew Point: 64°   Wind: 10mph
Humidity: 65%   Direction: 340°NNW
Pressure: 29.97"   Gusts: NA
Location:  15.95°S, 49.37°W
Report Text: SBAN 221900Z 34009KT 9999 SCT030 FEW035TCU 25/18 Q1015
Loading
Personal Weather Stations






























Interactive Weather Map New forecast layout! Learn more

10-Day Weather Forecast

Advertisements
Track Severe Weather on mobile